Time;durP1;ratioP1;P1;durP2;ratioP2;P2;SDS_P1;SDS_P2;PMS_P1;PMS_P2;Temp;Humidity;BMP_temperature;BMP_pressure;BME280_temperature;BME280_humidity;BME280_pressure;Samples;Min_cycle;Max_cycle;Signal;HPM_P1;HPM_P2
2023/03/23 00:01:00;;;;;;;4.70;2.33;;;15.50;64.40;;;;;;4994404;28;20483;-79
2023/03/23 00:03:31;;;;;;;7.70;2.30;;;15.50;64.50;;;;;;4993995;28;20462;-78
2023/03/23 00:06:04;;;;;;;6.50;2.00;;;15.50;64.60;;;;;;5002124;28;20535;-78
2023/03/23 00:08:33;;;;;;;4.10;1.80;;;15.50;64.60;;;;;;4995935;28;20553;-78
2023/03/23 00:11:01;;;;;;;4.33;1.97;;;15.60;64.60;;;;;;4987667;28;20486;-78
2023/03/23 00:13:30;;;;;;;5.53;1.70;;;15.50;64.70;;;;;;5002268;28;20858;-78
2023/03/23 00:15:57;;;;;;;7.20;2.40;;;15.50;64.80;;;;;;4989117;28;20914;-80
2023/03/23 00:18:25;;;;;;;6.23;2.10;;;15.50;64.90;;;;;;4984906;28;20946;-81
2023/03/23 00:20:53;;;;;;;5.00;1.83;;;15.60;64.80;;;;;;5002402;28;20532;-78
2023/03/23 00:23:24;;;;;;;5.20;1.93;;;15.50;64.80;;;;;;4977247;28;20665;-78
2023/03/23 00:25:56;;;;;;;5.70;2.07;;;15.50;64.90;;;;;;4994593;28;20558;-78
2023/03/23 00:28:26;;;;;;;4.83;2.30;;;15.50;65.00;;;;;;4989929;28;20491;-78
2023/03/23 00:31:12;;;;;;;4.30;1.97;;;15.40;65.10;;;;;;4987835;28;20486;-77
2023/03/23 00:33:40;;;;;;;5.30;2.00;;;15.40;65.10;;;;;;4990370;28;20461;-79
2023/03/23 00:36:09;;;;;;;6.40;1.93;;;15.40;65.20;;;;;;4999368;28;20460;-79
2023/03/23 00:38:39;;;;;;;5.03;1.80;;;15.40;65.20;;;;;;5000444;28;20470;-79
2023/03/23 00:41:07;;;;;;;5.33;2.00;;;15.50;65.10;;;;;;5000457;28;20480;-79
2023/03/23 00:43:38;;;;;;;5.20;2.20;;;15.40;65.20;;;;;;5000986;28;20460;-81
2023/03/23 00:46:09;;;;;;;6.40;2.03;;;15.40;65.20;;;;;;4999352;28;20623;-81
2023/03/23 00:48:44;;;;;;;6.10;1.60;;;15.40;65.20;;;;;;4994165;28;20683;-81
2023/03/23 00:51:11;;;;;;;4.00;1.53;;;15.40;65.20;;;;;;5006200;28;20488;-83
2023/03/23 00:53:43;;;;;;;7.47;2.00;;;15.40;65.30;;;;;;4992746;28;20454;-81
2023/03/23 00:56:10;;;;;;;8.30;1.70;;;15.30;65.40;;;;;;4996603;28;20471;-82
2023/03/23 00:58:38;;;;;;;5.07;1.80;;;15.40;65.40;;;;;;4995336;28;20467;-82
2023/03/23 01:01:07;;;;;;;4.60;1.90;;;15.40;65.20;;;;;;4984311;28;20489;-81
2023/03/23 01:03:36;;;;;;;5.43;1.90;;;15.40;65.20;;;;;;4972474;28;20466;-78
2023/03/23 01:06:12;;;;;;;5.40;2.30;;;15.30;65.30;;;;;;4975090;28;20453;-78
2023/03/23 01:08:46;;;;;;;5.70;2.30;;;15.30;65.40;;;;;;4976041;28;20456;-78
2023/03/23 01:11:16;;;;;;;6.27;2.20;;;15.30;65.40;;;;;;4973771;28;20493;-79
2023/03/23 01:13:44;;;;;;;5.80;1.53;;;15.30;65.40;;;;;;4976983;28;20483;-78
2023/03/23 01:16:14;;;;;;;4.23;1.60;;;15.30;65.30;;;;;;4979062;28;20463;-80
2023/03/23 01:18:41;;;;;;;6.00;2.03;;;15.30;65.40;;;;;;4957204;28;20458;-77
2023/03/23 01:21:11;;;;;;;4.80;1.87;;;15.20;65.50;;;;;;4974576;28;20538;-78
2023/03/23 01:23:40;;;;;;;5.10;2.30;;;15.20;65.50;;;;;;4958031;28;20468;-78
2023/03/23 01:26:10;;;;;;;3.87;1.57;;;15.20;65.60;;;;;;4976706;28;20547;-76
2023/03/23 01:28:37;;;;;;;3.70;1.50;;;15.20;65.60;;;;;;4967484;28;20480;-81
2023/03/23 01:31:06;;;;;;;4.60;1.53;;;15.10;65.60;;;;;;4989008;28;20992;-78
2023/03/23 01:33:35;;;;;;;4.57;1.70;;;15.10;65.60;;;;;;4989890;28;20469;-78
2023/03/23 01:36:05;;;;;;;5.50;2.00;;;15.20;65.60;;;;;;4990971;28;20479;-78
2023/03/23 01:38:35;;;;;;;4.30;1.83;;;15.20;65.60;;;;;;5009549;28;20459;-80
2023/03/23 01:41:03;;;;;;;5.10;1.63;;;15.10;65.60;;;;;;4992549;28;20460;-80
2023/03/23 01:43:30;;;;;;;3.93;1.67;;;15.10;65.60;;;;;;5007489;28;20527;-80
2023/03/23 01:45:58;;;;;;;5.63;1.70;;;15.10;65.60;;;;;;4992402;28;20458;-80
2023/03/23 01:48:31;;;;;;;5.90;1.60;;;15.10;65.60;;;;;;4994266;28;20466;-80
2023/03/23 01:51:05;;;;;;;3.87;1.47;;;15.10;65.60;;;;;;4998844;28;20482;-79
2023/03/23 01:53:37;;;;;;;5.73;1.77;;;15.10;65.70;;;;;;4994766;28;20901;-77
2023/03/23 01:56:06;;;;;;;4.80;2.10;;;15.10;65.70;;;;;;4969974;28;20457;-78
2023/03/23 01:58:37;;;;;;;6.33;1.67;;;15.10;65.70;;;;;;4996133;28;20461;-78
2023/03/23 02:01:07;;;;;;;4.13;1.40;;;15.10;65.70;;;;;;4976193;28;20655;-78
2023/03/23 02:03:38;;;;;;;6.00;1.73;;;15.10;65.70;;;;;;4954665;28;20462;-78
2023/03/23 02:06:07;;;;;;;4.67;1.83;;;15.10;65.70;;;;;;4957751;28;20518;-79
2023/03/23 02:08:45;;;;;;;4.97;1.60;;;15.10;65.70;;;;;;4959676;28;20563;-78
2023/03/23 02:11:14;;;;;;;4.27;1.57;;;15.10;65.70;;;;;;4975878;28;20574;-78
2023/03/23 02:13:42;;;;;;;4.53;1.30;;;15.00;65.70;;;;;;4977226;28;20463;-78
2023/03/23 02:16:18;;;;;;;5.70;1.70;;;15.10;65.70;;;;;;4958203;28;20464;-78
2023/03/23 02:18:58;;;;;;;4.73;1.50;;;15.10;65.70;;;;;;4960324;28;20504;-78
2023/03/23 02:22:15;;;;;;;3.97;1.50;;;15.00;65.70;;;;;;4963095;28;20466;-78
2023/03/23 02:25:15;;;;;;;4.63;1.67;;;15.00;65.70;;;;;;4961915;28;20464;-78
2023/03/23 02:28:12;;;;;;;3.70;1.40;;;15.00;65.70;;;;;;4975263;28;20567;-78
2023/03/23 02:30:54;;;;;;;4.37;1.60;;;15.00;65.70;;;;;;4978571;28;20483;-78
2023/03/23 02:33:39;;;;;;;4.60;1.70;;;15.00;65.70;;;;;;5000163;28;20491;-77
2023/03/23 02:36:16;;;;;;;5.40;1.70;;;15.00;65.70;;;;;;4997589;28;20464;-79
2023/03/23 02:38:50;;;;;;;4.23;1.47;;;14.90;65.70;;;;;;4997978;28;20492;-79
2023/03/23 02:41:20;;;;;;;5.10;1.50;;;14.90;65.70;;;;;;4985844;28;20457;-79
2023/03/23 02:43:50;;;;;;;5.57;1.60;;;14.90;65.70;;;;;;4983106;28;20495;-80
2023/03/23 02:46:17;;;;;;;5.37;1.80;;;14.90;65.70;;;;;;4995762;28;20802;-81
2023/03/23 02:48:50;;;;;;;4.30;1.50;;;14.90;65.70;;;;;;4989346;28;20560;-80
2023/03/23 02:51:19;;;;;;;4.90;1.70;;;14.90;65.70;;;;;;5000689;28;20461;-81
2023/03/23 02:53:50;;;;;;;4.40;1.33;;;14.80;65.80;;;;;;4977242;28;20948;-80
2023/03/23 02:56:22;;;;;;;4.07;1.70;;;14.80;65.80;;;;;;4982876;28;20970;-82
2023/03/23 02:58:49;;;;;;;6.77;1.40;;;14.80;65.80;;;;;;4994766;28;20463;-82
2023/03/23 03:02:10;;;;;;;4.20;1.70;;;14.80;65.80;;;;;;4996304;28;20499;-82
2023/03/23 03:04:42;;;;;;;3.87;1.70;;;14.80;65.70;;;;;;4983192;28;20473;-82
2023/03/23 03:07:36;;;;;;;3.80;1.40;;;14.80;65.80;;;;;;4993206;28;20520;-82
2023/03/23 03:10:10;;;;;;;3.83;1.47;;;14.80;65.90;;;;;;4991917;28;20889;-83
2023/03/23 03:12:46;;;;;;;4.00;1.30;;;14.80;65.90;;;;;;4994585;28;20564;-82
2023/03/23 03:15:21;;;;;;;4.60;1.67;;;14.90;65.90;;;;;;4999093;28;20503;-83
2023/03/23 03:17:56;;;;;;;4.20;1.43;;;14.90;65.90;;;;;;4994914;28;20531;-82
2023/03/23 03:20:27;;;;;;;5.23;1.30;;;14.80;65.90;;;;;;4977380;28;20457;-83
2023/03/23 03:22:56;;;;;;;4.03;1.40;;;14.80;65.90;;;;;;4988407;28;20467;-83
2023/03/23 03:25:24;;;;;;;3.93;1.57;;;14.80;65.90;;;;;;4991285;28;20494;-81
2023/03/23 03:27:53;;;;;;;3.63;1.37;;;14.80;65.90;;;;;;5000076;28;20487;-82
2023/03/23 03:30:34;;;;;;;8.03;1.50;;;14.80;65.90;;;;;;4979361;28;20542;-82
2023/03/23 03:33:02;;;;;;;5.00;1.77;;;14.80;65.90;;;;;;4995718;28;20520;-82
2023/03/23 03:35:32;;;;;;;4.57;1.70;;;14.80;65.90;;;;;;4995448;28;20576;-83
2023/03/23 03:38:07;;;;;;;6.53;1.63;;;14.90;65.90;;;;;;4994744;28;20460;-82
2023/03/23 03:40:34;;;;;;;4.17;1.50;;;14.90;65.90;;;;;;4990570;28;20460;-78
2023/03/23 03:43:04;;;;;;;4.60;1.73;;;14.80;65.90;;;;;;4989444;28;20544;-78
2023/03/23 03:45:31;;;;;;;4.47;1.47;;;14.80;65.90;;;;;;4978822;28;20460;-79
2023/03/23 03:47:58;;;;;;;4.30;1.33;;;14.80;65.90;;;;;;4989562;28;20469;-78
2023/03/23 03:50:24;;;;;;;5.00;2.03;;;14.80;65.90;;;;;;4979077;28;20553;-78
2023/03/23 03:52:53;;;;;;;6.90;1.93;;;14.80;66.00;;;;;;4992614;28;20489;-78
2023/03/23 03:55:20;;;;;;;5.03;1.97;;;14.80;66.00;;;;;;4986598;28;20471;-78
2023/03/23 03:57:49;;;;;;;4.70;1.90;;;14.80;66.00;;;;;;4978270;28;20480;-78
2023/03/23 04:00:27;;;;;;;3.77;1.30;;;14.80;66.00;;;;;;4991776;28;20509;-78
2023/03/23 04:02:54;;;;;;;4.73;1.57;;;14.80;66.00;;;;;;4976571;28;20458;-79
2023/03/23 04:05:44;;;;;;;3.90;1.73;;;14.70;66.10;;;;;;4984472;28;20975;-78
2023/03/23 04:08:13;;;;;;;3.90;1.40;;;14.80;66.10;;;;;;4992703;28;20461;-78
2023/03/23 04:10:41;;;;;;;5.77;1.70;;;14.80;66.10;;;;;;4977208;28;20473;-79
2023/03/23 04:13:08;;;;;;;5.70;1.80;;;14.70;66.10;;;;;;4993260;28;20489;-79
2023/03/23 04:15:54;;;;;;;4.40;1.80;;;14.70;66.20;;;;;;5000841;28;20454;-79
2023/03/23 04:18:21;;;;;;;4.40;1.73;;;14.70;66.20;;;;;;4997935;28;20890;-79
2023/03/23 04:20:51;;;;;;;7.60;1.87;;;14.70;66.20;;;;;;4996857;28;20547;-79
2023/03/23 04:23:23;;;;;;;5.07;1.90;;;14.70;66.30;;;;;;4995539;28;20486;-79
2023/03/23 04:26:00;;;;;;;4.40;1.40;;;14.70;66.30;;;;;;4998190;28;20458;-78
2023/03/23 04:28:34;;;;;;;5.10;1.53;;;14.70;66.30;;;;;;4980012;28;20595;-79
2023/03/23 04:31:20;;;;;;;4.67;1.60;;;14.70;66.30;;;;;;4999921;28;20486;-78
2023/03/23 04:33:53;;;;;;;3.50;1.50;;;14.60;66.30;;;;;;4998615;28;20499;-78
2023/03/23 04:36:23;;;;;;;6.83;2.10;;;14.60;66.40;;;;;;4994230;28;20459;-79
2023/03/23 04:39:02;;;;;;;4.77;1.90;;;14.60;66.50;;;;;;5000052;28;20595;-79
2023/03/23 04:41:30;;;;;;;4.80;1.67;;;14.60;66.50;;;;;;5000359;28;20452;-78
2023/03/23 04:44:17;;;;;;;3.90;1.80;;;14.70;66.50;;;;;;4994835;28;20464;-79
2023/03/23 04:46:55;;;;;;;5.57;2.30;;;14.60;66.60;;;;;;4996664;28;20529;-79
2023/03/23 04:49:23;;;;;;;5.30;1.70;;;14.70;66.60;;;;;;4996835;28;20553;-78
2023/03/23 04:51:56;;;;;;;5.10;1.83;;;14.70;66.60;;;;;;4996324;28;20485;-80
2023/03/23 04:54:39;;;;;;;5.20;1.60;;;14.60;66.60;;;;;;4998777;28;20461;-80
2023/03/23 04:57:08;;;;;;;4.93;1.90;;;14.60;66.70;;;;;;4997006;28;20459;-80
2023/03/23 04:59:37;;;;;;;4.30;1.70;;;14.60;66.70;;;;;;5001354;28;20541;-80
2023/03/23 05:02:10;;;;;;;4.43;1.50;;;14.60;66.70;;;;;;4987759;28;20519;-80
2023/03/23 05:04:38;;;;;;;5.33;1.97;;;14.60;66.80;;;;;;5000359;28;20482;-77
2023/03/23 05:07:11;;;;;;;3.73;1.40;;;14.60;66.80;;;;;;4982559;28;20464;-77
2023/03/23 05:09:48;;;;;;;3.60;1.50;;;14.70;66.80;;;;;;5000153;28;20608;-79
2023/03/23 05:12:18;;;;;;;4.33;1.63;;;14.70;66.80;;;;;;4992515;28;20527;-79
2023/03/23 05:14:55;;;;;;;4.77;1.60;;;14.70;66.80;;;;;;4999020;28;20994;-80
2023/03/23 05:17:25;;;;;;;5.90;1.80;;;14.70;66.90;;;;;;4997863;28;20455;-79
2023/03/23 05:19:56;;;;;;;6.30;1.87;;;14.70;66.90;;;;;;5017859;28;20469;-79
2023/03/23 05:22:40;;;;;;;5.17;1.60;;;14.70;66.90;;;;;;4992803;28;21070;-80
2023/03/23 05:25:10;;;;;;;4.13;1.73;;;14.80;67.00;;;;;;5005644;28;20461;-80
2023/03/23 05:27:48;;;;;;;4.93;1.43;;;14.80;67.00;;;;;;4997710;28;20468;-80
2023/03/23 05:30:23;;;;;;;4.93;1.83;;;14.80;67.00;;;;;;4995090;28;20459;-81
2023/03/23 05:32:50;;;;;;;4.50;1.90;;;14.70;67.10;;;;;;4996133;28;20474;-80
2023/03/23 05:35:43;;;;;;;5.03;1.70;;;14.80;67.20;;;;;;4965736;28;20548;-79
2023/03/23 05:38:11;;;;;;;5.53;1.70;;;14.80;67.20;;;;;;4993850;28;21254;-79
2023/03/23 05:40:41;;;;;;;6.10;2.20;;;14.80;67.30;;;;;;4979583;28;20497;-80
2023/03/23 05:43:27;;;;;;;4.20;1.70;;;14.80;67.40;;;;;;4996577;28;20465;-79
2023/03/23 05:46:11;;;;;;;6.00;1.60;;;14.70;67.50;;;;;;4997633;28;20471;-80
2023/03/23 05:48:39;;;;;;;5.00;2.03;;;14.70;67.60;;;;;;4981377;28;20465;-78
2023/03/23 05:51:12;;;;;;;6.03;1.87;;;14.70;67.70;;;;;;4996304;28;20493;-80
2023/03/23 05:53:43;;;;;;;4.60;1.73;;;14.70;67.80;;;;;;4981510;28;20535;-79
2023/03/23 05:56:14;;;;;;;4.47;2.00;;;14.70;67.90;;;;;;4995246;28;20973;-78
2023/03/23 05:58:54;;;;;;;4.60;1.90;;;14.70;68.00;;;;;;4980177;28;20483;-78
2023/03/23 06:01:21;;;;;;;5.50;2.10;;;14.70;68.10;;;;;;4997853;28;20488;-78
2023/03/23 06:03:51;;;;;;;5.63;2.47;;;14.70;68.10;;;;;;4994141;28;20465;-78
2023/03/23 06:06:21;;;;;;;7.20;2.00;;;14.70;68.20;;;;;;4992861;28;20466;-79
2023/03/23 06:08:53;;;;;;;6.00;1.90;;;14.80;68.20;;;;;;4994126;28;20458;-78
2023/03/23 06:11:31;;;;;;;8.57;2.60;;;14.80;68.20;;;;;;4995966;28;20501;-78
2023/03/23 06:14:19;;;;;;;5.30;2.07;;;14.70;68.30;;;;;;4994245;28;20841;-78
2023/03/23 06:16:47;;;;;;;5.80;2.00;;;14.70;68.30;;;;;;5005617;28;20459;-79
2023/03/23 06:19:15;;;;;;;4.50;1.93;;;14.70;68.50;;;;;;4993631;28;20493;-77
2023/03/23 06:21:51;;;;;;;4.47;2.07;;;14.70;68.50;;;;;;4988480;28;20458;-78
2023/03/23 06:24:56;;;;;;;4.20;2.00;;;14.70;68.50;;;;;;4999905;28;20866;-80
2023/03/23 06:27:37;;;;;;;5.93;1.70;;;14.70;68.60;;;;;;4993197;28;20468;-80
2023/03/23 06:30:06;;;;;;;9.17;1.90;;;14.80;68.50;;;;;;4990566;28;20608;-79
2023/03/23 06:32:34;;;;;;;5.60;1.87;;;14.80;68.50;;;;;;4991158;28;20490;-78
2023/03/23 06:35:03;;;;;;;5.53;1.70;;;14.70;68.60;;;;;;4980496;28;20465;-79
2023/03/23 06:37:53;;;;;;;3.83;1.37;;;14.70;68.70;;;;;;4992037;28;20466;-79
2023/03/23 06:40:28;;;;;;;5.63;1.60;;;14.80;68.80;;;;;;4995758;28;20460;-79
2023/03/23 06:42:58;;;;;;;4.00;1.80;;;14.80;68.80;;;;;;5002676;28;20483;-79
2023/03/23 06:45:42;;;;;;;4.53;1.80;;;14.80;68.80;;;;;;4997450;28;20462;-79
2023/03/23 06:48:29;;;;;;;4.00;1.30;;;14.80;68.90;;;;;;4995370;28;20766;-79
2023/03/23 06:50:58;;;;;;;4.40;1.80;;;14.80;68.90;;;;;;4995524;28;20519;-79
2023/03/23 06:53:28;;;;;;;4.90;1.90;;;14.80;68.90;;;;;;4974677;28;20494;-79
2023/03/23 06:55:57;;;;;;;4.63;1.60;;;14.80;68.90;;;;;;4992874;28;20470;-79
2023/03/23 06:58:28;;;;;;;4.60;1.60;;;14.90;68.90;;;;;;4993805;28;20476;-79
2023/03/23 07:00:58;;;;;;;4.10;1.40;;;14.80;69.00;;;;;;4974561;28;20490;-79
2023/03/23 07:03:31;;;;;;;3.90;1.43;;;14.80;69.10;;;;;;4991058;28;20460;-79
2023/03/23 07:05:59;;;;;;;4.70;1.40;;;14.90;69.00;;;;;;4983554;28;22317;-79
2023/03/23 07:08:30;;;;;;;4.37;1.70;;;14.90;69.00;;;;;;4996181;28;20459;-80
2023/03/23 07:10:59;;;;;;;4.17;1.50;;;14.80;69.10;;;;;;4995823;28;20489;-80
2023/03/23 07:13:30;;;;;;;4.63;1.80;;;14.90;69.00;;;;;;4993608;28;20486;-81
2023/03/23 07:16:00;;;;;;;4.77;1.57;;;15.00;68.90;;;;;;4996512;28;20473;-80
2023/03/23 07:18:29;;;;;;;6.80;1.57;;;14.90;69.00;;;;;;4996609;28;20470;-82
2023/03/23 07:20:58;;;;;;;4.10;1.40;;;14.90;69.00;;;;;;4980960;28;20821;-83
2023/03/23 07:23:31;;;;;;;4.10;1.27;;;14.90;69.10;;;;;;4999681;28;20451;-83
2023/03/23 07:26:07;;;;;;;3.70;1.17;;;14.90;69.10;;;;;;4995347;28;21827;-83
2023/03/23 07:28:48;;;;;;;4.20;1.40;;;14.80;69.20;;;;;;4979592;28;20465;-83
2023/03/23 07:31:31;;;;;;;3.90;1.50;;;14.80;69.20;;;;;;4985365;28;20888;-84
2023/03/23 07:33:58;;;;;;;4.13;1.50;;;14.90;69.20;;;;;;4995481;28;20487;-83
2023/03/23 07:36:37;;;;;;;5.63;1.87;;;14.80;69.20;;;;;;4985445;28;20493;-83
2023/03/23 07:39:06;;;;;;;4.37;1.77;;;14.80;69.20;;;;;;4998034;28;20513;-83
2023/03/23 07:41:34;;;;;;;6.23;1.40;;;14.90;69.30;;;;;;5000050;28;20488;-83
2023/03/23 07:44:07;;;;;;;5.83;2.20;;;14.90;69.20;;;;;;4999840;28;20476;-85
2023/03/23 07:46:36;;;;;;;4.37;1.90;;;14.90;69.20;;;;;;4998761;28;20505;-84
2023/03/23 07:49:24;;;;;;;5.10;1.93;;;14.90;69.30;;;;;;4988320;28;20471;-85
2023/03/23 07:52:02;;;;;;;4.40;1.53;;;14.90;69.30;;;;;;5004233;28;20491;-84
2023/03/23 07:54:30;;;;;;;3.90;1.33;;;14.90;69.50;;;;;;5000050;28;20478;-85
2023/03/23 07:57:03;;;;;;;4.27;1.63;;;14.90;69.60;;;;;;5000617;28;21045;-85
2023/03/23 07:59:34;;;;;;;4.20;1.40;;;14.90;69.60;;;;;;5010804;28;20899;-84
2023/03/23 08:02:02;;;;;;;4.90;1.63;;;14.90;69.70;;;;;;4985329;28;20536;-83
2023/03/23 08:04:53;;;;;;;4.00;1.53;;;14.90;70.00;;;;;;4993957;28;20543;-86
2023/03/23 08:07:24;;;;;;;3.93;1.20;;;14.90;70.10;;;;;;4999827;28;20465;-82
2023/03/23 08:09:59;;;;;;;5.57;1.67;;;15.00;70.20;;;;;;4999847;28;20458;-83
2023/03/23 08:12:56;;;;;;;5.00;1.87;;;15.00;70.30;;;;;;5000509;28;20454;-81
2023/03/23 08:15:57;;;;;;;5.30;1.60;;;15.00;70.40;;;;;;4949216;28;20501;-82
2023/03/23 08:19:04;;;;;;;6.03;2.07;;;15.00;70.60;;;;;;4989648;28;20454;-82
2023/03/23 08:22:01;;;;;;;5.30;1.77;;;15.00;70.60;;;;;;5019142;28;20526;-82
2023/03/23 08:24:48;;;;;;;3.97;1.40;;;15.10;70.70;;;;;;4983810;28;20462;-83
2023/03/23 08:27:31;;;;;;;5.07;1.73;;;15.00;70.80;;;;;;5002933;28;20456;-82
2023/03/23 08:30:13;;;;;;;5.20;1.30;;;15.10;70.80;;;;;;4987688;28;20486;-82
2023/03/23 08:32:48;;;;;;;4.43;1.60;;;15.20;70.90;;;;;;5015159;28;20500;-83
2023/03/23 08:35:29;;;;;;;4.83;1.50;;;15.20;71.00;;;;;;5002276;28;20991;-81
2023/03/23 08:38:07;;;;;;;5.60;1.87;;;15.30;71.00;;;;;;4997926;28;20466;-82
2023/03/23 08:40:54;;;;;;;4.17;1.90;;;15.30;70.90;;;;;;4995682;28;20513;-82
2023/03/23 08:43:40;;;;;;;6.70;1.60;;;15.30;71.00;;;;;;4995641;28;20473;-82
2023/03/23 08:46:31;;;;;;;4.00;1.50;;;15.40;71.00;;;;;;4992734;28;20558;-81
2023/03/23 08:49:20;;;;;;;5.33;2.00;;;15.40;71.00;;;;;;4995764;28;20571;-83
2023/03/23 08:52:07;;;;;;;7.37;1.87;;;15.40;71.10;;;;;;4957322;28;20497;-81
2023/03/23 08:54:54;;;;;;;4.10;1.60;;;15.40;71.00;;;;;;4996609;28;20491;-82
2023/03/23 08:57:40;;;;;;;5.07;2.00;;;15.40;71.10;;;;;;5002379;28;20495;-85
2023/03/23 09:00:30;;;;;;;4.40;1.70;;;15.40;71.20;;;;;;4991340;28;20516;-81
2023/03/23 09:03:17;;;;;;;3.90;1.40;;;15.40;71.20;;;;;;4998467;28;20507;-81
2023/03/23 09:06:04;;;;;;;5.33;1.60;;;15.30;71.30;;;;;;5004192;28;20458;-81
2023/03/23 09:08:52;;;;;;;4.53;2.13;;;15.30;71.40;;;;;;4995703;28;20471;-82
2023/03/23 09:11:19;;;;;;;3.80;1.30;;;15.30;71.60;;;;;;4994118;28;20566;-84
2023/03/23 09:13:46;;;;;;;4.13;1.40;;;15.30;71.70;;;;;;4994912;28;20483;-81
2023/03/23 09:16:14;;;;;;;4.93;1.70;;;15.30;71.80;;;;;;4999153;28;20495;-83
2023/03/23 09:18:41;;;;;;;4.90;1.50;;;15.40;71.90;;;;;;4994811;28;20463;-84
2023/03/23 09:21:09;;;;;;;4.20;1.40;;;15.40;71.90;;;;;;4997431;28;20478;-83
2023/03/23 09:23:36;;;;;;;4.13;1.30;;;15.50;71.90;;;;;;5010055;28;20492;-82
2023/03/23 09:26:04;;;;;;;5.60;1.80;;;15.50;71.90;;;;;;4999990;28;20534;-83
2023/03/23 09:28:32;;;;;;;4.23;1.50;;;15.50;72.00;;;;;;5004898;28;20522;-83
2023/03/23 09:30:59;;;;;;;4.80;1.90;;;15.50;71.90;;;;;;5003472;28;20493;-82
2023/03/23 09:33:28;;;;;;;5.10;2.00;;;15.50;71.90;;;;;;4998711;28;21230;-83
2023/03/23 09:35:55;;;;;;;4.43;1.63;;;15.50;72.00;;;;;;5002289;28;20481;-84
2023/03/23 09:38:24;;;;;;;7.23;1.57;;;15.60;72.00;;;;;;4994726;28;20562;-81
2023/03/23 09:41:06;;;;;;;6.43;1.70;;;15.50;72.00;;;;;;4993886;28;20452;-84
2023/03/23 09:43:50;;;;;;;5.83;1.40;;;15.50;72.20;;;;;;5000213;28;20481;-83
2023/03/23 09:46:39;;;;;;;3.97;1.30;;;15.60;72.10;;;;;;4995322;28;20463;-85
2023/03/23 09:49:11;;;;;;;4.83;1.80;;;15.60;71.90;;;;;;4997451;28;20499;-82
2023/03/23 09:51:46;;;;;;;4.00;1.50;;;15.60;72.00;;;;;;4989911;28;20458;-82
2023/03/23 09:54:21;;;;;;;3.80;1.27;;;15.50;71.90;;;;;;5018990;28;20484;-82
2023/03/23 09:56:50;;;;;;;5.20;1.30;;;15.50;72.00;;;;;;4997325;28;20716;-82
2023/03/23 09:59:22;;;;;;;4.37;1.30;;;15.60;72.00;;;;;;4981773;28;20988;-82
2023/03/23 10:01:51;;;;;;;3.67;1.30;;;15.60;72.10;;;;;;5002174;28;20512;-82
2023/03/23 10:04:37;;;;;;;5.00;1.20;;;15.60;72.20;;;;;;4996671;28;20885;-82
2023/03/23 10:07:12;;;;;;;5.17;1.50;;;15.60;72.30;;;;;;4995331;28;20463;-82
2023/03/23 10:09:41;;;;;;;4.33;1.20;;;15.60;72.40;;;;;;4994043;28;20456;-82
2023/03/23 10:12:20;;;;;;;3.40;1.10;;;15.50;72.40;;;;;;4997408;28;20572;-82
2023/03/23 10:15:02;;;;;;;4.40;1.30;;;15.50;72.40;;;;;;4996176;28;20485;-82
2023/03/23 10:17:34;;;;;;;3.77;1.40;;;15.50;72.50;;;;;;4995092;28;20517;-81
2023/03/23 10:20:15;;;;;;;3.73;1.43;;;15.40;72.50;;;;;;5001134;28;20565;-81
2023/03/23 10:22:52;;;;;;;3.40;1.10;;;15.40;72.60;;;;;;4992623;28;21083;-82
2023/03/23 10:25:24;;;;;;;3.73;1.33;;;15.40;72.60;;;;;;4999177;28;20456;-82
2023/03/23 10:27:57;;;;;;;3.40;1.10;;;15.40;72.70;;;;;;4982203;28;20553;-82
2023/03/23 10:30:30;;;;;;;5.23;1.47;;;15.40;72.70;;;;;;4995421;28;20470;-81
2023/03/23 10:33:02;;;;;;;3.70;1.20;;;15.40;72.80;;;;;;4993188;28;20462;-82
2023/03/23 10:35:34;;;;;;;5.97;1.20;;;15.40;72.80;;;;;;4995937;28;20494;-82
2023/03/23 10:38:05;;;;;;;4.20;1.13;;;15.50;72.70;;;;;;4998382;28;21007;-81
2023/03/23 10:40:35;;;;;;;4.43;1.40;;;15.40;72.90;;;;;;4995695;28;20545;-81
2023/03/23 10:43:02;;;;;;;3.90;1.27;;;15.50;72.90;;;;;;4999879;28;20470;-82
2023/03/23 10:45:32;;;;;;;3.37;1.10;;;15.60;72.70;;;;;;5004553;28;20457;-82
2023/03/23 10:48:09;;;;;;;4.03;1.30;;;15.60;72.70;;;;;;4996540;28;20486;-82
2023/03/23 10:50:38;;;;;;;3.80;1.17;;;15.70;72.80;;;;;;4996849;28;20486;-82
2023/03/23 10:53:16;;;;;;;3.33;1.00;;;15.70;72.70;;;;;;4994018;28;20528;-82
2023/03/23 10:55:46;;;;;;;5.83;1.13;;;15.70;72.60;;;;;;4996898;28;21305;-82
2023/03/23 10:58:24;;;;;;;5.70;1.30;;;15.80;72.50;;;;;;4993587;28;20458;-81
2023/03/23 11:00:52;;;;;;;3.60;1.20;;;15.80;72.40;;;;;;4983030;28;20463;-81
2023/03/23 11:03:29;;;;;;;3.83;1.10;;;15.80;72.40;;;;;;5000716;28;20470;-83
2023/03/23 11:05:58;;;;;;;7.47;1.83;;;15.80;72.30;;;;;;4990885;28;20549;-82
2023/03/23 11:08:29;;;;;;;4.43;1.23;;;15.80;72.30;;;;;;4995563;28;20971;-82
2023/03/23 11:11:00;;;;;;;4.07;1.07;;;15.80;72.30;;;;;;4996097;28;20554;-81
2023/03/23 11:13:32;;;;;;;3.80;1.10;;;15.80;72.20;;;;;;4993149;28;20499;-82
2023/03/23 11:15:59;;;;;;;3.77;0.90;;;15.80;71.90;;;;;;5013798;28;20500;-82
2023/03/23 11:18:27;;;;;;;3.93;1.43;;;15.80;71.90;;;;;;4994891;28;21020;-82
2023/03/23 11:20:57;;;;;;;3.80;1.10;;;15.70;71.80;;;;;;5000857;28;20455;-81
2023/03/23 11:23:28;;;;;;;4.03;1.10;;;15.80;71.50;;;;;;4982086;28;20591;-82
2023/03/23 11:26:14;;;;;;;4.17;1.20;;;15.70;71.50;;;;;;5000631;28;20442;-82
2023/03/23 11:28:45;;;;;;;4.17;0.90;;;15.70;71.40;;;;;;4998612;28;20446;-82
2023/03/23 11:31:12;;;;;;;5.97;1.20;;;15.70;71.50;;;;;;4993491;28;20563;-82
2023/03/23 11:33:52;;;;;;;3.37;1.03;;;15.60;71.40;;;;;;4994081;28;20551;-80
2023/03/23 11:36:23;;;;;;;6.30;1.20;;;15.60;71.50;;;;;;4997841;28;20462;-82
2023/03/23 11:38:57;;;;;;;4.17;1.47;;;15.60;71.50;;;;;;4995839;28;20547;-82
2023/03/23 11:41:30;;;;;;;3.40;1.03;;;15.60;71.40;;;;;;4997762;28;20467;-83
2023/03/23 11:43:57;;;;;;;3.90;1.40;;;15.60;71.50;;;;;;5000161;28;20491;-83
2023/03/23 11:46:34;;;;;;;3.87;1.07;;;15.60;71.60;;;;;;4996287;28;20460;-82
2023/03/23 11:49:04;;;;;;;4.33;1.50;;;15.60;71.80;;;;;;4995087;28;20875;-81
2023/03/23 11:51:37;;;;;;;7.13;1.40;;;15.60;72.00;;;;;;4997663;28;20487;-82
2023/03/23 11:54:11;;;;;;;5.43;1.93;;;15.60;72.00;;;;;;5001155;28;20549;-82
2023/03/23 11:56:42;;;;;;;4.77;1.90;;;15.60;72.20;;;;;;4995506;28;20510;-81
2023/03/23 11:59:14;;;;;;;6.97;2.10;;;15.60;72.40;;;;;;5005946;28;20878;-82
2023/03/23 12:01:50;;;;;;;7.97;2.10;;;15.60;72.50;;;;;;4994551;28;20482;-81
2023/03/23 12:04:41;;;;;;;4.87;1.93;;;15.50;72.80;;;;;;4993831;28;20455;-82
2023/03/23 12:07:31;;;;;;;6.30;2.23;;;15.40;73.00;;;;;;4987790;28;20462;-83
2023/03/23 12:10:10;;;;;;;5.30;2.33;;;15.40;73.10;;;;;;4999201;28;20542;-83
2023/03/23 12:12:46;;;;;;;5.43;2.63;;;15.40;73.20;;;;;;4993766;28;20466;-81
2023/03/23 12:15:31;;;;;;;4.97;2.60;;;15.40;73.40;;;;;;4989086;28;20991;-83
2023/03/23 12:18:07;;;;;;;5.90;2.70;;;15.40;73.50;;;;;;5015177;28;20702;-83
2023/03/23 12:20:46;;;;;;;5.10;3.00;;;15.40;73.60;;;;;;4997429;28;20706;-83
2023/03/23 12:23:23;;;;;;;6.17;2.70;;;15.40;73.70;;;;;;4998059;28;20454;-82
2023/03/23 12:26:09;;;;;;;5.80;3.00;;;15.40;73.90;;;;;;4997705;28;20564;-82
2023/03/23 12:28:56;;;;;;;5.47;2.37;;;15.40;73.90;;;;;;5003212;28;20508;-81
2023/03/23 12:31:28;;;;;;;6.77;2.73;;;15.40;74.10;;;;;;4984988;28;20532;-82
2023/03/23 12:34:02;;;;;;;6.93;2.90;;;15.40;74.20;;;;;;5005622;28;20462;-83
2023/03/23 12:36:45;;;;;;;5.30;3.20;;;15.40;74.40;;;;;;4985307;28;20553;-81
2023/03/23 12:40:00;;;;;;;4.80;2.53;;;15.40;74.70;;;;;;4979806;28;21306;-81
2023/03/23 12:42:33;;;;;;;6.87;2.50;;;15.60;74.70;;;;;;4942362;28;20562;-81
2023/03/23 12:45:09;;;;;;;4.93;2.40;;;15.60;74.70;;;;;;4956448;28;20451;-81
2023/03/23 12:47:44;;;;;;;4.90;2.33;;;15.70;74.70;;;;;;4992670;28;20466;-82
2023/03/23 12:50:17;;;;;;;5.03;2.13;;;15.70;74.80;;;;;;5020912;28;20525;-82
2023/03/23 12:52:52;;;;;;;4.03;1.97;;;15.70;74.80;;;;;;4985904;28;20469;-82
2023/03/23 12:55:23;;;;;;;5.23;1.93;;;15.70;75.10;;;;;;5014731;28;20490;-83
2023/03/23 12:57:58;;;;;;;5.20;2.03;;;15.80;75.00;;;;;;4998368;28;20450;-81
2023/03/23 13:00:30;;;;;;;5.57;1.77;;;15.80;75.00;;;;;;4993919;28;21133;-82
2023/03/23 13:03:02;;;;;;;4.20;1.80;;;15.80;74.90;;;;;;5005385;28;20530;-82
2023/03/23 13:05:44;;;;;;;4.10;1.70;;;15.80;74.90;;;;;;5003400;28;20517;-81
2023/03/23 13:08:17;;;;;;;3.70;1.30;;;15.90;74.80;;;;;;4981904;28;20977;-83
2023/03/23 13:10:48;;;;;;;3.90;1.20;;;16.00;74.70;;;;;;4996961;28;20500;-81
2023/03/23 13:13:19;;;;;;;5.33;1.10;;;16.00;74.70;;;;;;4994520;28;20470;-83
2023/03/23 13:15:57;;;;;;;4.60;1.47;;;15.90;74.80;;;;;;4994435;28;20510;-82
2023/03/23 13:18:35;;;;;;;3.60;1.20;;;16.00;74.80;;;;;;4997876;28;20510;-82
2023/03/23 13:21:11;;;;;;;4.13;1.30;;;16.00;74.80;;;;;;5015062;28;20533;-81
2023/03/23 13:23:42;;;;;;;4.20;1.20;;;16.00;74.70;;;;;;5008308;28;20875;-82
2023/03/23 13:26:12;;;;;;;5.20;1.20;;;16.10;74.50;;;;;;5002268;28;20960;-82